sensor_id;sensor_type;location;lat;lon;timestamp;P1;durP1;ratioP1;P2;durP2;ratioP2
16308;SDS011;8263;48.880;9.276;2023-07-28T00:01:10;124.60;;;116.00;;
16308;SDS011;8263;48.880;9.276;2023-07-28T00:03:37;128.95;;;120.05;;
16308;SDS011;8263;48.880;9.276;2023-07-28T00:06:03;125.13;;;116.65;;
16308;SDS011;8263;48.880;9.276;2023-07-28T00:08:30;128.13;;;119.43;;
16308;SDS011;8263;48.880;9.276;2023-07-28T00:10:58;128.77;;;120.00;;
16308;SDS011;8263;48.880;9.276;2023-07-28T00:13:25;128.35;;;119.57;;
16308;SDS011;8263;48.880;9.276;2023-07-28T00:15:52;127.72;;;119.03;;
16308;SDS011;8263;48.880;9.276;2023-07-28T00:18:19;126.43;;;117.75;;
16308;SDS011;8263;48.880;9.276;2023-07-28T00:20:46;128.20;;;119.40;;
16308;SDS011;8263;48.880;9.276;2023-07-28T00:23:14;128.00;;;119.22;;
16308;SDS011;8263;48.880;9.276;2023-07-28T00:25:40;129.10;;;120.30;;
16308;SDS011;8263;48.880;9.276;2023-07-28T00:28:13;126.90;;;118.22;;
16308;SDS011;8263;48.880;9.276;2023-07-28T00:30:40;127.28;;;118.63;;
16308;SDS011;8263;48.880;9.276;2023-07-28T00:33:07;126.22;;;117.65;;
16308;SDS011;8263;48.880;9.276;2023-07-28T00:35:35;128.60;;;119.80;;
16308;SDS011;8263;48.880;9.276;2023-07-28T00:38:03;127.13;;;118.50;;
16308;SDS011;8263;48.880;9.276;2023-07-28T00:40:29;128.50;;;119.70;;
16308;SDS011;8263;48.880;9.276;2023-07-28T00:42:56;128.05;;;119.32;;
16308;SDS011;8263;48.880;9.276;2023-07-28T00:45:24;127.68;;;118.97;;
16308;SDS011;8263;48.880;9.276;2023-07-28T00:47:51;129.60;;;120.70;;
16308;SDS011;8263;48.880;9.276;2023-07-28T00:50:18;127.55;;;118.85;;
16308;SDS011;8263;48.880;9.276;2023-07-28T00:52:47;127.75;;;119.05;;
16308;SDS011;8263;48.880;9.276;2023-07-28T00:55:14;131.73;;;122.63;;
16308;SDS011;8263;48.880;9.276;2023-07-28T00:57:41;129.20;;;120.30;;
16308;SDS011;8263;48.880;9.276;2023-07-28T01:00:08;127.68;;;118.97;;
16308;SDS011;8263;48.880;9.276;2023-07-28T01:02:37;129.90;;;121.00;;
16308;SDS011;8263;48.880;9.276;2023-07-28T01:05:03;126.68;;;118.07;;
16308;SDS011;8263;48.880;9.276;2023-07-28T01:07:32;126.75;;;118.10;;
16308;SDS011;8263;48.880;9.276;2023-07-28T01:10:02;128.13;;;119.22;;
16308;SDS011;8263;48.880;9.276;2023-07-28T01:12:33;126.45;;;117.80;;
16308;SDS011;8263;48.880;9.276;2023-07-28T01:14:59;129.02;;;120.22;;
16308;SDS011;8263;48.880;9.276;2023-07-28T01:17:26;130.30;;;121.32;;
16308;SDS011;8263;48.880;9.276;2023-07-28T01:19:54;129.60;;;120.70;;
16308;SDS011;8263;48.880;9.276;2023-07-28T01:22:33;129.77;;;120.78;;
16308;SDS011;8263;48.880;9.276;2023-07-28T01:25:06;127.55;;;118.78;;
16308;SDS011;8263;48.880;9.276;2023-07-28T01:27:36;129.30;;;120.50;;
16308;SDS011;8263;48.880;9.276;2023-07-28T01:30:07;128.73;;;119.93;;
16308;SDS011;8263;48.880;9.276;2023-07-28T01:32:35;129.52;;;120.63;;
16308;SDS011;8263;48.880;9.276;2023-07-28T01:35:01;129.73;;;120.85;;
16308;SDS011;8263;48.880;9.276;2023-07-28T01:37:28;128.70;;;119.82;;
16308;SDS011;8263;48.880;9.276;2023-07-28T01:39:55;129.48;;;120.38;;
16308;SDS011;8263;48.880;9.276;2023-07-28T01:42:22;129.63;;;120.72;;
16308;SDS011;8263;48.880;9.276;2023-07-28T01:44:51;128.10;;;119.35;;
16308;SDS011;8263;48.880;9.276;2023-07-28T01:47:21;128.57;;;119.78;;
16308;SDS011;8263;48.880;9.276;2023-07-28T01:49:48;127.53;;;118.80;;
16308;SDS011;8263;48.880;9.276;2023-07-28T01:52:16;129.43;;;120.53;;
16308;SDS011;8263;48.880;9.276;2023-07-28T01:54:44;130.10;;;121.20;;
16308;SDS011;8263;48.880;9.276;2023-07-28T01:57:19;130.00;;;121.03;;
16308;SDS011;8263;48.880;9.276;2023-07-28T02:00:01;131.45;;;122.38;;
16308;SDS011;8263;48.880;9.276;2023-07-28T02:02:28;130.18;;;121.20;;
16308;SDS011;8263;48.880;9.276;2023-07-28T02:04:56;128.50;;;119.70;;
16308;SDS011;8263;48.880;9.276;2023-07-28T02:07:23;130.23;;;121.22;;
16308;SDS011;8263;48.880;9.276;2023-07-28T02:09:50;125.25;;;116.70;;
16308;SDS011;8263;48.880;9.276;2023-07-28T02:12:16;130.25;;;121.28;;
16308;SDS011;8263;48.880;9.276;2023-07-28T02:14:46;129.55;;;120.63;;
16308;SDS011;8263;48.880;9.276;2023-07-28T02:17:15;127.90;;;119.10;;
16308;SDS011;8263;48.880;9.276;2023-07-28T02:19:42;128.43;;;119.63;;
16308;SDS011;8263;48.880;9.276;2023-07-28T02:22:08;130.80;;;121.70;;
16308;SDS011;8263;48.880;9.276;2023-07-28T02:24:36;128.70;;;119.82;;
16308;SDS011;8263;48.880;9.276;2023-07-28T02:27:03;129.48;;;120.55;;
16308;SDS011;8263;48.880;9.276;2023-07-28T02:29:30;129.55;;;120.57;;
16308;SDS011;8263;48.880;9.276;2023-07-28T02:31:56;131.43;;;122.43;;
16308;SDS011;8263;48.880;9.276;2023-07-28T02:34:27;129.32;;;120.32;;
16308;SDS011;8263;48.880;9.276;2023-07-28T02:36:55;129.20;;;120.30;;
16308;SDS011;8263;48.880;9.276;2023-07-28T02:39:21;128.18;;;119.38;;
16308;SDS011;8263;48.880;9.276;2023-07-28T02:41:48;130.40;;;121.47;;
16308;SDS011;8263;48.880;9.276;2023-07-28T02:44:15;129.82;;;120.88;;
16308;SDS011;8263;48.880;9.276;2023-07-28T02:46:42;130.05;;;121.05;;
16308;SDS011;8263;48.880;9.276;2023-07-28T02:49:09;131.55;;;122.40;;
16308;SDS011;8263;48.880;9.276;2023-07-28T02:51:37;130.35;;;121.22;;
16308;SDS011;8263;48.880;9.276;2023-07-28T02:54:04;128.30;;;119.53;;
16308;SDS011;8263;48.880;9.276;2023-07-28T02:56:31;130.05;;;121.05;;
16308;SDS011;8263;48.880;9.276;2023-07-28T02:59:02;130.32;;;121.32;;
16308;SDS011;8263;48.880;9.276;2023-07-28T03:01:30;130.85;;;121.82;;
16308;SDS011;8263;48.880;9.276;2023-07-28T03:03:58;131.60;;;122.47;;
16308;SDS011;8263;48.880;9.276;2023-07-28T03:06:24;130.48;;;121.28;;
16308;SDS011;8263;48.880;9.276;2023-07-28T03:08:52;130.27;;;121.28;;
16308;SDS011;8263;48.880;9.276;2023-07-28T03:11:19;132.35;;;123.18;;
16308;SDS011;8263;48.880;9.276;2023-07-28T03:13:46;128.27;;;119.50;;
16308;SDS011;8263;48.880;9.276;2023-07-28T03:16:12;131.82;;;122.72;;
16308;SDS011;8263;48.880;9.276;2023-07-28T03:18:39;132.43;;;123.28;;
16308;SDS011;8263;48.880;9.276;2023-07-28T03:21:05;129.98;;;121.05;;
16308;SDS011;8263;48.880;9.276;2023-07-28T03:23:35;131.95;;;122.85;;
16308;SDS011;8263;48.880;9.276;2023-07-28T03:26:03;130.30;;;121.32;;
16308;SDS011;8263;48.880;9.276;2023-07-28T03:28:30;130.75;;;121.75;;
16308;SDS011;8263;48.880;9.276;2023-07-28T03:30:57;129.98;;;121.00;;
16308;SDS011;8263;48.880;9.276;2023-07-28T03:33:27;129.68;;;120.78;;
16308;SDS011;8263;48.880;9.276;2023-07-28T03:35:56;128.88;;;120.00;;
16308;SDS011;8263;48.880;9.276;2023-07-28T03:38:23;131.93;;;122.72;;
16308;SDS011;8263;48.880;9.276;2023-07-28T03:40:51;130.73;;;121.63;;
16308;SDS011;8263;48.880;9.276;2023-07-28T03:43:19;131.50;;;122.40;;
16308;SDS011;8263;48.880;9.276;2023-07-28T03:45:47;129.57;;;120.63;;
16308;SDS011;8263;48.880;9.276;2023-07-28T03:48:14;131.93;;;122.72;;
16308;SDS011;8263;48.880;9.276;2023-07-28T03:50:40;129.90;;;120.97;;
16308;SDS011;8263;48.880;9.276;2023-07-28T03:53:07;130.98;;;121.88;;
16308;SDS011;8263;48.880;9.276;2023-07-28T03:55:37;130.98;;;121.97;;
16308;SDS011;8263;48.880;9.276;2023-07-28T03:58:03;130.73;;;121.32;;
16308;SDS011;8263;48.880;9.276;2023-07-28T04:00:34;131.15;;;121.88;;
16308;SDS011;8263;48.880;9.276;2023-07-28T04:03:00;130.35;;;121.35;;
16308;SDS011;8263;48.880;9.276;2023-07-28T04:05:27;132.15;;;122.97;;
16308;SDS011;8263;48.880;9.276;2023-07-28T04:07:54;130.30;;;121.30;;
16308;SDS011;8263;48.880;9.276;2023-07-28T04:10:20;131.75;;;122.63;;
16308;SDS011;8263;48.880;9.276;2023-07-28T04:12:48;129.88;;;120.90;;
16308;SDS011;8263;48.880;9.276;2023-07-28T04:15:15;131.60;;;122.53;;
16308;SDS011;8263;48.880;9.276;2023-07-28T04:17:43;132.10;;;123.00;;
16308;SDS011;8263;48.880;9.276;2023-07-28T04:20:10;131.82;;;122.53;;
16308;SDS011;8263;48.880;9.276;2023-07-28T04:22:37;129.48;;;120.47;;
16308;SDS011;8263;48.880;9.276;2023-07-28T04:25:04;130.90;;;121.90;;
16308;SDS011;8263;48.880;9.276;2023-07-28T04:27:30;130.77;;;121.75;;
16308;SDS011;8263;48.880;9.276;2023-07-28T04:29:57;131.35;;;122.25;;
16308;SDS011;8263;48.880;9.276;2023-07-28T04:32:26;131.88;;;122.70;;
16308;SDS011;8263;48.880;9.276;2023-07-28T04:34:54;130.38;;;121.38;;
16308;SDS011;8263;48.880;9.276;2023-07-28T04:37:22;132.00;;;122.88;;
16308;SDS011;8263;48.880;9.276;2023-07-28T04:39:49;128.15;;;119.35;;
16308;SDS011;8263;48.880;9.276;2023-07-28T04:42:16;130.07;;;121.07;;
16308;SDS011;8263;48.880;9.276;2023-07-28T04:44:43;129.05;;;120.18;;
16308;SDS011;8263;48.880;9.276;2023-07-28T04:47:11;130.38;;;121.38;;
16308;SDS011;8263;48.880;9.276;2023-07-28T04:49:38;130.73;;;121.72;;
16308;SDS011;8263;48.880;9.276;2023-07-28T04:52:07;131.00;;;121.93;;
16308;SDS011;8263;48.880;9.276;2023-07-28T04:54:34;132.60;;;123.18;;
16308;SDS011;8263;48.880;9.276;2023-07-28T04:57:01;130.20;;;121.20;;
16308;SDS011;8263;48.880;9.276;2023-07-28T04:59:28;129.95;;;120.95;;
16308;SDS011;8263;48.880;9.276;2023-07-28T05:01:54;133.00;;;123.75;;
16308;SDS011;8263;48.880;9.276;2023-07-28T05:04:21;129.27;;;120.28;;
16308;SDS011;8263;48.880;9.276;2023-07-28T05:06:48;130.75;;;121.72;;
16308;SDS011;8263;48.880;9.276;2023-07-28T05:09:16;131.25;;;122.22;;
16308;SDS011;8263;48.880;9.276;2023-07-28T05:11:43;132.02;;;122.93;;
16308;SDS011;8263;48.880;9.276;2023-07-28T05:14:09;130.43;;;121.43;;
16308;SDS011;8263;48.880;9.276;2023-07-28T05:16:36;129.50;;;120.57;;
16308;SDS011;8263;48.880;9.276;2023-07-28T05:19:03;129.15;;;120.25;;
16308;SDS011;8263;48.880;9.276;2023-07-28T05:21:29;130.70;;;121.47;;
16308;SDS011;8263;48.880;9.276;2023-07-28T05:23:56;131.57;;;122.50;;
16308;SDS011;8263;48.880;9.276;2023-07-28T05:26:24;131.88;;;122.72;;
16308;SDS011;8263;48.880;9.276;2023-07-28T05:28:50;132.95;;;123.65;;
16308;SDS011;8263;48.880;9.276;2023-07-28T05:31:17;130.70;;;121.70;;
16308;SDS011;8263;48.880;9.276;2023-07-28T05:33:43;132.70;;;123.40;;
16308;SDS011;8263;48.880;9.276;2023-07-28T05:36:11;131.98;;;122.88;;
16308;SDS011;8263;48.880;9.276;2023-07-28T05:38:37;130.57;;;121.50;;
16308;SDS011;8263;48.880;9.276;2023-07-28T05:41:04;132.88;;;123.60;;
16308;SDS011;8263;48.880;9.276;2023-07-28T05:43:33;131.23;;;122.13;;
16308;SDS011;8263;48.880;9.276;2023-07-28T05:46:00;132.50;;;123.30;;
16308;SDS011;8263;48.880;9.276;2023-07-28T05:48:27;132.18;;;122.95;;
16308;SDS011;8263;48.880;9.276;2023-07-28T05:50:53;132.15;;;122.97;;
16308;SDS011;8263;48.880;9.276;2023-07-28T05:53:20;133.13;;;123.90;;
16308;SDS011;8263;48.880;9.276;2023-07-28T05:55:47;131.00;;;121.93;;
16308;SDS011;8263;48.880;9.276;2023-07-28T05:58:14;132.80;;;123.50;;
16308;SDS011;8263;48.880;9.276;2023-07-28T06:00:42;130.90;;;121.80;;
16308;SDS011;8263;48.880;9.276;2023-07-28T06:03:09;131.98;;;122.68;;
16308;SDS011;8263;48.880;9.276;2023-07-28T06:05:37;130.50;;;121.50;;
16308;SDS011;8263;48.880;9.276;2023-07-28T06:08:04;130.43;;;121.43;;
16308;SDS011;8263;48.880;9.276;2023-07-28T06:10:31;131.70;;;122.53;;
16308;SDS011;8263;48.880;9.276;2023-07-28T06:12:57;130.88;;;121.85;;
16308;SDS011;8263;48.880;9.276;2023-07-28T06:15:24;132.32;;;123.13;;
16308;SDS011;8263;48.880;9.276;2023-07-28T06:17:52;129.52;;;120.63;;
16308;SDS011;8263;48.880;9.276;2023-07-28T06:20:19;130.15;;;121.05;;
16308;SDS011;8263;48.880;9.276;2023-07-28T06:22:45;131.50;;;122.40;;
16308;SDS011;8263;48.880;9.276;2023-07-28T06:25:13;129.02;;;120.13;;
16308;SDS011;8263;48.880;9.276;2023-07-28T06:27:43;132.23;;;123.05;;
16308;SDS011;8263;48.880;9.276;2023-07-28T06:30:11;130.57;;;121.57;;
16308;SDS011;8263;48.880;9.276;2023-07-28T06:32:37;131.38;;;122.22;;
16308;SDS011;8263;48.880;9.276;2023-07-28T06:35:06;131.43;;;122.35;;
16308;SDS011;8263;48.880;9.276;2023-07-28T06:37:36;129.52;;;120.60;;
16308;SDS011;8263;48.880;9.276;2023-07-28T06:40:03;132.60;;;123.32;;
16308;SDS011;8263;48.880;9.276;2023-07-28T06:42:30;131.13;;;122.05;;
16308;SDS011;8263;48.880;9.276;2023-07-28T06:44:57;130.55;;;121.35;;
16308;SDS011;8263;48.880;9.276;2023-07-28T06:47:23;130.25;;;121.28;;
16308;SDS011;8263;48.880;9.276;2023-07-28T06:49:50;130.25;;;121.32;;
16308;SDS011;8263;48.880;9.276;2023-07-28T06:52:18;131.30;;;122.28;;
16308;SDS011;8263;48.880;9.276;2023-07-28T06:54:45;131.15;;;122.13;;
16308;SDS011;8263;48.880;9.276;2023-07-28T06:57:14;128.57;;;119.78;;
16308;SDS011;8263;48.880;9.276;2023-07-28T06:59:41;128.30;;;119.55;;
16308;SDS011;8263;48.880;9.276;2023-07-28T07:02:07;130.77;;;121.75;;
16308;SDS011;8263;48.880;9.276;2023-07-28T07:04:34;131.63;;;122.55;;
16308;SDS011;8263;48.880;9.276;2023-07-28T07:07:01;131.93;;;122.70;;
16308;SDS011;8263;48.880;9.276;2023-07-28T07:09:29;130.15;;;121.15;;
16308;SDS011;8263;48.880;9.276;2023-07-28T07:11:56;129.63;;;120.70;;
16308;SDS011;8263;48.880;9.276;2023-07-28T07:14:23;128.95;;;120.05;;
16308;SDS011;8263;48.880;9.276;2023-07-28T07:16:50;128.48;;;119.60;;
16308;SDS011;8263;48.880;9.276;2023-07-28T07:19:17;128.23;;;119.43;;
16308;SDS011;8263;48.880;9.276;2023-07-28T07:21:43;129.07;;;120.05;;
16308;SDS011;8263;48.880;9.276;2023-07-28T07:24:10;131.27;;;122.20;;
16308;SDS011;8263;48.880;9.276;2023-07-28T07:26:40;129.60;;;120.65;;
16308;SDS011;8263;48.880;9.276;2023-07-28T07:29:07;129.98;;;120.97;;
16308;SDS011;8263;48.880;9.276;2023-07-28T07:31:33;132.43;;;123.22;;
16308;SDS011;8263;48.880;9.276;2023-07-28T07:34:00;129.23;;;120.38;;
16308;SDS011;8263;48.880;9.276;2023-07-28T07:36:29;126.05;;;117.45;;
16308;SDS011;8263;48.880;9.276;2023-07-28T07:38:58;130.77;;;121.78;;
16308;SDS011;8263;48.880;9.276;2023-07-28T07:41:24;131.18;;;121.97;;
16308;SDS011;8263;48.880;9.276;2023-07-28T07:43:53;128.98;;;120.10;;
16308;SDS011;8263;48.880;9.276;2023-07-28T07:46:20;131.38;;;122.28;;
16308;SDS011;8263;48.880;9.276;2023-07-28T07:48:47;127.43;;;118.68;;
16308;SDS011;8263;48.880;9.276;2023-07-28T07:51:13;131.48;;;122.35;;
16308;SDS011;8263;48.880;9.276;2023-07-28T07:53:40;131.13;;;122.03;;
16308;SDS011;8263;48.880;9.276;2023-07-28T07:56:07;128.55;;;119.70;;
16308;SDS011;8263;48.880;9.276;2023-07-28T07:58:33;128.73;;;119.85;;
16308;SDS011;8263;48.880;9.276;2023-07-28T08:01:02;129.18;;;120.38;;
16308;SDS011;8263;48.880;9.276;2023-07-28T08:03:30;129.10;;;120.28;;
16308;SDS011;8263;48.880;9.276;2023-07-28T08:05:58;129.00;;;120.00;;
16308;SDS011;8263;48.880;9.276;2023-07-28T08:08:25;126.43;;;117.82;;
16308;SDS011;8263;48.880;9.276;2023-07-28T08:10:52;129.75;;;120.75;;
16308;SDS011;8263;48.880;9.276;2023-07-28T08:13:19;130.07;;;121.07;;
16308;SDS011;8263;48.880;9.276;2023-07-28T08:15:45;128.88;;;119.97;;
16308;SDS011;8263;48.880;9.276;2023-07-28T08:18:15;125.88;;;117.30;;
16308;SDS011;8263;48.880;9.276;2023-07-28T08:20:42;128.57;;;119.75;;
16308;SDS011;8263;48.880;9.276;2023-07-28T08:23:08;129.55;;;120.63;;
16308;SDS011;8263;48.880;9.276;2023-07-28T08:25:35;127.00;;;118.32;;
16308;SDS011;8263;48.880;9.276;2023-07-28T08:28:02;128.75;;;119.82;;
16308;SDS011;8263;48.880;9.276;2023-07-28T08:30:29;129.20;;;120.32;;
16308;SDS011;8263;48.880;9.276;2023-07-28T08:32:56;129.52;;;120.63;;
16308;SDS011;8263;48.880;9.276;2023-07-28T08:35:25;127.78;;;119.07;;
16308;SDS011;8263;48.880;9.276;2023-07-28T08:37:52;128.38;;;119.55;;
16308;SDS011;8263;48.880;9.276;2023-07-28T08:40:19;129.02;;;120.13;;
16308;SDS011;8263;48.880;9.276;2023-07-28T08:42:45;129.48;;;120.40;;
16308;SDS011;8263;48.880;9.276;2023-07-28T08:45:12;128.05;;;119.25;;
16308;SDS011;8263;48.880;9.276;2023-07-28T08:47:39;129.13;;;120.22;;
16308;SDS011;8263;48.880;9.276;2023-07-28T08:50:06;125.88;;;117.32;;
16308;SDS011;8263;48.880;9.276;2023-07-28T08:52:34;129.00;;;120.15;;
16308;SDS011;8263;48.880;9.276;2023-07-28T08:55:01;127.63;;;118.85;;
16308;SDS011;8263;48.880;9.276;2023-07-28T08:57:27;126.63;;;117.93;;
16308;SDS011;8263;48.880;9.276;2023-07-28T08:59:55;128.57;;;119.78;;
16308;SDS011;8263;48.880;9.276;2023-07-28T09:02:21;126.70;;;118.00;;
16308;SDS011;8263;48.880;9.276;2023-07-28T09:04:48;126.47;;;117.90;;
16308;SDS011;8263;48.880;9.276;2023-07-28T09:07:15;124.78;;;116.20;;
16308;SDS011;8263;48.880;9.276;2023-07-28T09:09:43;128.50;;;119.03;;
16308;SDS011;8263;48.880;9.276;2023-07-28T09:12:11;127.53;;;118.82;;
16308;SDS011;8263;48.880;9.276;2023-07-28T09:14:39;126.03;;;117.47;;
16308;SDS011;8263;48.880;9.276;2023-07-28T09:17:07;126.70;;;118.10;;
16308;SDS011;8263;48.880;9.276;2023-07-28T09:19:34;125.45;;;116.63;;
16308;SDS011;8263;48.880;9.276;2023-07-28T09:22:01;127.70;;;118.97;;
16308;SDS011;8263;48.880;9.276;2023-07-28T09:24:30;127.93;;;118.75;;
16308;SDS011;8263;48.880;9.276;2023-07-28T09:26:58;125.95;;;117.38;;
16308;SDS011;8263;48.880;9.276;2023-07-28T09:29:25;125.85;;;117.25;;
16308;SDS011;8263;48.880;9.276;2023-07-28T09:31:54;122.22;;;113.97;;
16308;SDS011;8263;48.880;9.276;2023-07-28T09:34:31;127.45;;;118.78;;
16308;SDS011;8263;48.880;9.276;2023-07-28T09:36:59;126.85;;;118.15;;
16308;SDS011;8263;48.880;9.276;2023-07-28T09:39:28;126.13;;;117.57;;
16308;SDS011;8263;48.880;9.276;2023-07-28T09:41:54;128.38;;;119.50;;
16308;SDS011;8263;48.880;9.276;2023-07-28T09:44:25;126.72;;;118.07;;
16308;SDS011;8263;48.880;9.276;2023-07-28T09:46:53;125.10;;;116.55;;
16308;SDS011;8263;48.880;9.276;2023-07-28T09:49:21;126.32;;;117.72;;
16308;SDS011;8263;48.880;9.276;2023-07-28T09:51:48;126.68;;;118.07;;
16308;SDS011;8263;48.880;9.276;2023-07-28T09:54:18;125.72;;;116.97;;
16308;SDS011;8263;48.880;9.276;2023-07-28T09:56:48;125.10;;;116.63;;
16308;SDS011;8263;48.880;9.276;2023-07-28T09:59:16;123.32;;;115.00;;
16308;SDS011;8263;48.880;9.276;2023-07-28T10:01:45;123.03;;;114.72;;
16308;SDS011;8263;48.880;9.276;2023-07-28T10:04:12;124.10;;;115.63;;
16308;SDS011;8263;48.880;9.276;2023-07-28T10:06:40;122.88;;;114.57;;
16308;SDS011;8263;48.880;9.276;2023-07-28T10:09:07;123.13;;;114.80;;
16308;SDS011;8263;48.880;9.276;2023-07-28T10:11:34;122.05;;;113.75;;
16308;SDS011;8263;48.880;9.276;2023-07-28T10:14:00;122.43;;;114.15;;
16308;SDS011;8263;48.880;9.276;2023-07-28T10:16:30;123.30;;;115.00;;
16308;SDS011;8263;48.880;9.276;2023-07-28T10:18:59;123.72;;;115.43;;
16308;SDS011;8263;48.880;9.276;2023-07-28T10:21:27;125.18;;;116.68;;
16308;SDS011;8263;48.880;9.276;2023-07-28T10:23:54;124.15;;;115.65;;
16308;SDS011;8263;48.880;9.276;2023-07-28T10:26:30;123.35;;;115.07;;
16308;SDS011;8263;48.880;9.276;2023-07-28T10:29:07;122.75;;;114.55;;
16308;SDS011;8263;48.880;9.276;2023-07-28T10:31:34;121.57;;;113.45;;
16308;SDS011;8263;48.880;9.276;2023-07-28T10:34:02;122.10;;;113.93;;
16308;SDS011;8263;48.880;9.276;2023-07-28T10:36:33;122.03;;;113.82;;
16308;SDS011;8263;48.880;9.276;2023-07-28T10:39:02;122.60;;;114.40;;
16308;SDS011;8263;48.880;9.276;2023-07-28T10:41:38;120.25;;;112.25;;
16308;SDS011;8263;48.880;9.276;2023-07-28T10:44:07;121.13;;;113.03;;
16308;SDS011;8263;48.880;9.276;2023-07-28T10:46:34;122.18;;;114.00;;
16308;SDS011;8263;48.880;9.276;2023-07-28T10:49:05;122.78;;;114.53;;
16308;SDS011;8263;48.880;9.276;2023-07-28T10:51:33;121.40;;;113.30;;
16308;SDS011;8263;48.880;9.276;2023-07-28T10:54:02;121.75;;;113.65;;
16308;SDS011;8263;48.880;9.276;2023-07-28T10:56:29;121.55;;;113.45;;
16308;SDS011;8263;48.880;9.276;2023-07-28T10:58:56;122.00;;;113.88;;
16308;SDS011;8263;48.880;9.276;2023-07-28T11:01:24;120.15;;;112.07;;
16308;SDS011;8263;48.880;9.276;2023-07-28T11:03:51;120.25;;;112.25;;
16308;SDS011;8263;48.880;9.276;2023-07-28T11:06:19;120.10;;;112.00;;
16308;SDS011;8263;48.880;9.276;2023-07-28T11:08:45;120.03;;;112.03;;
16308;SDS011;8263;48.880;9.276;2023-07-28T11:11:12;121.03;;;112.93;;
16308;SDS011;8263;48.880;9.276;2023-07-28T11:13:40;121.88;;;113.68;;
16308;SDS011;8263;48.880;9.276;2023-07-28T11:16:07;121.60;;;113.50;;
16308;SDS011;8263;48.880;9.276;2023-07-28T11:18:35;119.18;;;111.20;;
16308;SDS011;8263;48.880;9.276;2023-07-28T11:21:02;117.22;;;109.45;;
16308;SDS011;8263;48.880;9.276;2023-07-28T11:23:30;120.57;;;112.53;;
16308;SDS011;8263;48.880;9.276;2023-07-28T11:25:58;119.35;;;111.43;;
16308;SDS011;8263;48.880;9.276;2023-07-28T11:28:25;120.75;;;112.65;;
16308;SDS011;8263;48.880;9.276;2023-07-28T11:30:51;118.15;;;110.32;;
16308;SDS011;8263;48.880;9.276;2023-07-28T11:33:19;120.45;;;112.43;;
16308;SDS011;8263;48.880;9.276;2023-07-28T11:35:47;120.75;;;112.65;;
16308;SDS011;8263;48.880;9.276;2023-07-28T11:38:14;119.75;;;111.78;;
16308;SDS011;8263;48.880;9.276;2023-07-28T11:40:42;118.85;;;110.95;;
16308;SDS011;8263;48.880;9.276;2023-07-28T11:43:11;118.65;;;110.78;;
16308;SDS011;8263;48.880;9.276;2023-07-28T11:45:38;116.13;;;108.43;;
16308;SDS011;8263;48.880;9.276;2023-07-28T11:48:05;120.05;;;112.05;;
16308;SDS011;8263;48.880;9.276;2023-07-28T11:50:34;118.07;;;110.18;;
16308;SDS011;8263;48.880;9.276;2023-07-28T11:53:01;117.75;;;109.95;;
16308;SDS011;8263;48.880;9.276;2023-07-28T11:55:28;121.15;;;113.05;;
16308;SDS011;8263;48.880;9.276;2023-07-28T11:57:56;117.40;;;109.60;;
16308;SDS011;8263;48.880;9.276;2023-07-28T12:00:28;119.55;;;111.55;;
16308;SDS011;8263;48.880;9.276;2023-07-28T12:03:03;116.10;;;108.40;;
16308;SDS011;8263;48.880;9.276;2023-07-28T12:05:30;119.40;;;111.47;;
16308;SDS011;8263;48.880;9.276;2023-07-28T12:07:57;119.97;;;112.00;;
16308;SDS011;8263;48.880;9.276;2023-07-28T12:10:23;118.57;;;110.68;;
16308;SDS011;8263;48.880;9.276;2023-07-28T12:12:50;116.50;;;108.80;;
16308;SDS011;8263;48.880;9.276;2023-07-28T12:15:23;118.18;;;110.35;;
16308;SDS011;8263;48.880;9.276;2023-07-28T12:18:02;118.25;;;110.40;;
16308;SDS011;8263;48.880;9.276;2023-07-28T12:20:32;114.70;;;107.15;;
16308;SDS011;8263;48.880;9.276;2023-07-28T12:22:59;115.85;;;108.18;;
16308;SDS011;8263;48.880;9.276;2023-07-28T12:25:25;121.60;;;113.50;;
16308;SDS011;8263;48.880;9.276;2023-07-28T12:27:52;117.15;;;109.38;;
16308;SDS011;8263;48.880;9.276;2023-07-28T12:30:19;116.90;;;109.20;;
16308;SDS011;8263;48.880;9.276;2023-07-28T12:32:47;115.32;;;107.72;;
16308;SDS011;8263;48.880;9.276;2023-07-28T12:35:13;115.53;;;107.93;;
16308;SDS011;8263;48.880;9.276;2023-07-28T12:37:40;115.15;;;107.55;;
16308;SDS011;8263;48.880;9.276;2023-07-28T12:40:07;117.88;;;110.07;;
16308;SDS011;8263;48.880;9.276;2023-07-28T12:42:35;117.15;;;109.45;;
16308;SDS011;8263;48.880;9.276;2023-07-28T12:45:02;117.55;;;109.75;;
16308;SDS011;8263;48.880;9.276;2023-07-28T12:47:29;113.72;;;106.10;;
16308;SDS011;8263;48.880;9.276;2023-07-28T12:49:58;117.00;;;109.05;;
16308;SDS011;8263;48.880;9.276;2023-07-28T12:52:24;116.78;;;108.97;;
16308;SDS011;8263;48.880;9.276;2023-07-28T12:54:51;114.50;;;107.00;;
16308;SDS011;8263;48.880;9.276;2023-07-28T12:57:17;117.07;;;109.35;;
16308;SDS011;8263;48.880;9.276;2023-07-28T12:59:44;116.05;;;108.40;;
16308;SDS011;8263;48.880;9.276;2023-07-28T13:02:11;115.57;;;107.95;;
16308;SDS011;8263;48.880;9.276;2023-07-28T13:04:37;117.22;;;109.50;;
16308;SDS011;8263;48.880;9.276;2023-07-28T13:07:06;118.30;;;110.50;;
16308;SDS011;8263;48.880;9.276;2023-07-28T13:09:32;119.95;;;112.03;;
16308;SDS011;8263;48.880;9.276;2023-07-28T13:11:59;114.63;;;107.13;;
16308;SDS011;8263;48.880;9.276;2023-07-28T13:14:25;120.05;;;112.07;;
16308;SDS011;8263;48.880;9.276;2023-07-28T13:16:52;116.78;;;109.05;;
16308;SDS011;8263;48.880;9.276;2023-07-28T13:19:18;117.90;;;110.07;;
16308;SDS011;8263;48.880;9.276;2023-07-28T13:21:45;117.10;;;109.32;;
16308;SDS011;8263;48.880;9.276;2023-07-28T13:24:13;116.95;;;109.15;;
16308;SDS011;8263;48.880;9.276;2023-07-28T13:26:39;117.55;;;109.78;;
16308;SDS011;8263;48.880;9.276;2023-07-28T13:29:06;117.18;;;109.45;;
16308;SDS011;8263;48.880;9.276;2023-07-28T13:31:32;119.97;;;111.97;;
16308;SDS011;8263;48.880;9.276;2023-07-28T13:33:59;116.88;;;109.13;;
16308;SDS011;8263;48.880;9.276;2023-07-28T13:36:26;117.50;;;109.70;;
16308;SDS011;8263;48.880;9.276;2023-07-28T13:38:53;118.10;;;110.30;;
16308;SDS011;8263;48.880;9.276;2023-07-28T13:41:20;118.07;;;110.28;;
16308;SDS011;8263;48.880;9.276;2023-07-28T13:43:47;120.50;;;112.45;;
16308;SDS011;8263;48.880;9.276;2023-07-28T13:46:13;118.57;;;110.68;;
16308;SDS011;8263;48.880;9.276;2023-07-28T13:48:40;118.43;;;110.60;;
16308;SDS011;8263;48.880;9.276;2023-07-28T13:51:07;119.43;;;111.53;;
16308;SDS011;8263;48.880;9.276;2023-07-28T13:53:33;119.50;;;111.50;;
16308;SDS011;8263;48.880;9.276;2023-07-28T13:56:00;116.65;;;108.95;;
16308;SDS011;8263;48.880;9.276;2023-07-28T13:58:28;117.43;;;109.63;;
16308;SDS011;8263;48.880;9.276;2023-07-28T14:00:54;119.65;;;111.72;;
16308;SDS011;8263;48.880;9.276;2023-07-28T14:03:21;118.22;;;110.38;;
16308;SDS011;8263;48.880;9.276;2023-07-28T14:05:48;118.47;;;110.57;;
16308;SDS011;8263;48.880;9.276;2023-07-28T14:08:14;116.20;;;108.50;;
16308;SDS011;8263;48.880;9.276;2023-07-28T14:10:43;118.30;;;110.35;;